This is the latest recevied weather packets stored in our database for station/object WA1NHP. If no packets are shown the sender has not sent any weather packets the latest 10 day(s).
| Time | Temp. | Humidity | Pressure | Rain* | Wind** | Luminosity | Snow |
|---|---|---|---|---|---|---|---|
| 1777307044 | 19.44° C | 37% | 1023.9 hPa | 0 mm | - | 981 W/m² | - |
| 1777306444 | 19.44° C | 38% | 1023.9 hPa | 0 mm | - | 979 W/m² | - |
| 1777305844 | 18.89° C | 38% | 1023.9 hPa | 0 mm | - | 977 W/m² | - |
| 1777305244 | 18.89° C | 39% | 1023.9 hPa | 0 mm | - | 972 W/m² | - |
| 1777304644 | 18.89° C | 39% | 1023.9 hPa | 0 mm | - | 962 W/m² | - |
| 1777304044 | 17.78° C | 43% | 1023.9 hPa | 0 mm | - | 953 W/m² | - |
| 1777303444 | 18.33° C | 40% | 1023.9 hPa | 0 mm | - | 940 W/m² | - |
| 1777302844 | 17.78° C | 43% | 1023.9 hPa | 0 mm | - | 930 W/m² | - |
| 1777302244 | 17.22° C | 43% | 1023.9 hPa | 0 mm | - | 919 W/m² | - |
| 1777301644 | 17.22° C | 42% | 1023.9 hPa | 0 mm | - | 902 W/m² | - |
| 1777301044 | 17.22° C | 42% | 1023.9 hPa | 0 mm | - | 884 W/m² | - |
| 1777300444 | 16.67° C | 43% | 1023.9 hPa | 0 mm | - | 861 W/m² | - |
| 1777299845 | 16.67° C | 45% | 1023.9 hPa | 0 mm | - | 847 W/m² | - |
| 1777299243 | 16.67° C | 45% | 1023.9 hPa | 0 mm | - | 819 W/m² | - |
| 1777298644 | 16.11° C | 46% | 1023.9 hPa | 0 mm | - | 800 W/m² | - |
| 1777298044 | 15.56° C | 49% | 1023.9 hPa | 0 mm | - | 775 W/m² | - |
| 1777297443 | 14.44° C | 50% | 1023.9 hPa | 0 mm | - | 580 W/m² | - |
| 1777296844 | 13.89° C | 53% | 1023.9 hPa | 0 mm | - | 320 W/m² | - |
| 1777296244 | 13.89° C | 54% | 1023.9 hPa | 0 mm | - | 431 W/m² | - |
| 1777295644 | 12.78° C | 57% | 1023.9 hPa | 0 mm | - | 163 W/m² | - |
| 1777295044 | 12.22° C | 59% | 1023.9 hPa | 0 mm | - | 220 W/m² | - |
| 1777294444 | 11.11° C | 60% | 1023.9 hPa | 0 mm | - | 373 W/m² | - |
| 1777293844 | 10.56° C | 63% | 1023.9 hPa | 0 mm | - | 338 W/m² | - |
| 1777293244 | 10° C | 63% | 1023.9 hPa | 0 mm | - | 285 W/m² | - |
| 1777292644 | 9.44° C | 65% | 1023.9 hPa | 0 mm | - | 183 W/m² | - |
* Rain latest hour (hover to see other rain measurements)
** Current wind speed in m/s (hover to see current wind gust speed)